sensor_id;sensor_type;location;lat;lon;timestamp;P1;durP1;ratioP1;P2;durP2;ratioP2
35110;SDS011;21290;50.158;8.658;2023-04-10T00:00:51;13.13;;;9.45;;
35110;SDS011;21290;50.158;8.658;2023-04-10T00:03:22;16.02;;;9.63;;
35110;SDS011;21290;50.158;8.658;2023-04-10T00:05:50;11.32;;;8.80;;
35110;SDS011;21290;50.158;8.658;2023-04-10T00:08:20;13.57;;;9.45;;
35110;SDS011;21290;50.158;8.658;2023-04-10T00:10:48;12.40;;;9.55;;
35110;SDS011;21290;50.158;8.658;2023-04-10T00:13:14;14.70;;;10.00;;
35110;SDS011;21290;50.158;8.658;2023-04-10T00:15:42;12.60;;;9.50;;
35110;SDS011;21290;50.158;8.658;2023-04-10T00:18:08;19.15;;;9.10;;
35110;SDS011;21290;50.158;8.658;2023-04-10T00:20:35;12.93;;;9.25;;
35110;SDS011;21290;50.158;8.658;2023-04-10T00:23:01;13.85;;;9.38;;
35110;SDS011;21290;50.158;8.658;2023-04-10T00:25:28;13.60;;;9.82;;
35110;SDS011;21290;50.158;8.658;2023-04-10T00:27:55;12.27;;;9.55;;
35110;SDS011;21290;50.158;8.658;2023-04-10T00:30:21;16.00;;;9.90;;
35110;SDS011;21290;50.158;8.658;2023-04-10T00:32:48;15.63;;;9.55;;
35110;SDS011;21290;50.158;8.658;2023-04-10T00:35:15;14.07;;;9.68;;
35110;SDS011;21290;50.158;8.658;2023-04-10T00:37:41;13.57;;;10.23;;
35110;SDS011;21290;50.158;8.658;2023-04-10T00:40:08;13.50;;;9.48;;
35110;SDS011;21290;50.158;8.658;2023-04-10T00:42:35;12.30;;;9.57;;
35110;SDS011;21290;50.158;8.658;2023-04-10T00:45:02;13.98;;;9.80;;
35110;SDS011;21290;50.158;8.658;2023-04-10T00:47:29;13.95;;;9.73;;
35110;SDS011;21290;50.158;8.658;2023-04-10T00:49:56;12.45;;;9.43;;
35110;SDS011;21290;50.158;8.658;2023-04-10T00:52:23;15.43;;;9.88;;
35110;SDS011;21290;50.158;8.658;2023-04-10T00:54:51;14.05;;;9.65;;
35110;SDS011;21290;50.158;8.658;2023-04-10T00:57:18;14.75;;;9.93;;
35110;SDS011;21290;50.158;8.658;2023-04-10T00:59:44;13.18;;;10.00;;
35110;SDS011;21290;50.158;8.658;2023-04-10T01:02:13;15.18;;;10.32;;
35110;SDS011;21290;50.158;8.658;2023-04-10T01:04:39;12.45;;;9.93;;
35110;SDS011;21290;50.158;8.658;2023-04-10T01:07:20;12.95;;;9.65;;
35110;SDS011;21290;50.158;8.658;2023-04-10T01:10:10;12.98;;;9.57;;
35110;SDS011;21290;50.158;8.658;2023-04-10T01:12:47;13.32;;;9.82;;
35110;SDS011;21290;50.158;8.658;2023-04-10T01:15:24;13.65;;;9.32;;
35110;SDS011;21290;50.158;8.658;2023-04-10T01:20:48;15.23;;;10.23;;
35110;SDS011;21290;50.158;8.658;2023-04-10T01:23:37;13.35;;;9.50;;
35110;SDS011;21290;50.158;8.658;2023-04-10T01:26:09;13.48;;;10.15;;
35110;SDS011;21290;50.158;8.658;2023-04-10T01:31:33;13.02;;;9.32;;
35110;SDS011;21290;50.158;8.658;2023-04-10T01:34:18;13.48;;;9.68;;
35110;SDS011;21290;50.158;8.658;2023-04-10T01:37:00;13.73;;;9.65;;
35110;SDS011;21290;50.158;8.658;2023-04-10T01:39:30;14.68;;;9.68;;
35110;SDS011;21290;50.158;8.658;2023-04-10T01:42:01;13.73;;;9.50;;
35110;SDS011;21290;50.158;8.658;2023-04-10T01:44:29;14.07;;;9.60;;
35110;SDS011;21290;50.158;8.658;2023-04-10T01:46:57;16.73;;;11.07;;
35110;SDS011;21290;50.158;8.658;2023-04-10T01:49:26;13.95;;;9.90;;
35110;SDS011;21290;50.158;8.658;2023-04-10T01:51:55;14.50;;;10.52;;
35110;SDS011;21290;50.158;8.658;2023-04-10T01:54:24;15.25;;;9.48;;
35110;SDS011;21290;50.158;8.658;2023-04-10T01:56:52;16.42;;;10.00;;
35110;SDS011;21290;50.158;8.658;2023-04-10T01:59:19;14.23;;;10.02;;
35110;SDS011;21290;50.158;8.658;2023-04-10T02:01:47;13.88;;;9.60;;
35110;SDS011;21290;50.158;8.658;2023-04-10T02:04:13;13.52;;;10.55;;
35110;SDS011;21290;50.158;8.658;2023-04-10T02:09:50;14.60;;;10.43;;
35110;SDS011;21290;50.158;8.658;2023-04-10T02:12:31;12.80;;;9.73;;
35110;SDS011;21290;50.158;8.658;2023-04-10T02:15:04;15.30;;;10.98;;
35110;SDS011;21290;50.158;8.658;2023-04-10T02:17:33;15.90;;;10.70;;
35110;SDS011;21290;50.158;8.658;2023-04-10T02:20:01;12.98;;;10.18;;
35110;SDS011;21290;50.158;8.658;2023-04-10T02:22:29;14.38;;;9.95;;
35110;SDS011;21290;50.158;8.658;2023-04-10T02:24:56;17.08;;;10.50;;
35110;SDS011;21290;50.158;8.658;2023-04-10T02:29:57;14.32;;;10.40;;
35110;SDS011;21290;50.158;8.658;2023-04-10T02:32:24;16.10;;;10.73;;
35110;SDS011;21290;50.158;8.658;2023-04-10T02:34:52;13.65;;;9.80;;
35110;SDS011;21290;50.158;8.658;2023-04-10T02:37:18;13.18;;;9.77;;
35110;SDS011;21290;50.158;8.658;2023-04-10T02:39:45;14.32;;;10.65;;
35110;SDS011;21290;50.158;8.658;2023-04-10T02:42:12;15.18;;;10.68;;
35110;SDS011;21290;50.158;8.658;2023-04-10T02:44:38;14.50;;;10.40;;
35110;SDS011;21290;50.158;8.658;2023-04-10T02:47:05;15.32;;;10.77;;
35110;SDS011;21290;50.158;8.658;2023-04-10T02:49:32;14.07;;;9.57;;
35110;SDS011;21290;50.158;8.658;2023-04-10T02:52:00;15.00;;;11.02;;
35110;SDS011;21290;50.158;8.658;2023-04-10T02:54:26;13.52;;;9.52;;
35110;SDS011;21290;50.158;8.658;2023-04-10T02:56:53;17.20;;;11.70;;
35110;SDS011;21290;50.158;8.658;2023-04-10T02:59:22;15.02;;;10.57;;
35110;SDS011;21290;50.158;8.658;2023-04-10T03:01:49;14.60;;;10.68;;
35110;SDS011;21290;50.158;8.658;2023-04-10T03:04:17;12.45;;;8.52;;
35110;SDS011;21290;50.158;8.658;2023-04-10T03:06:44;14.93;;;11.02;;
35110;SDS011;21290;50.158;8.658;2023-04-10T03:09:11;15.05;;;11.60;;
35110;SDS011;21290;50.158;8.658;2023-04-10T03:11:38;15.27;;;11.35;;
35110;SDS011;21290;50.158;8.658;2023-04-10T03:14:04;16.60;;;11.57;;
35110;SDS011;21290;50.158;8.658;2023-04-10T03:16:31;15.52;;;11.70;;
35110;SDS011;21290;50.158;8.658;2023-04-10T03:18:58;16.90;;;12.05;;
35110;SDS011;21290;50.158;8.658;2023-04-10T03:21:24;23.13;;;12.20;;
35110;SDS011;21290;50.158;8.658;2023-04-10T03:23:52;16.17;;;11.63;;
35110;SDS011;21290;50.158;8.658;2023-04-10T03:26:19;18.05;;;12.00;;
35110;SDS011;21290;50.158;8.658;2023-04-10T03:28:46;17.95;;;11.45;;
35110;SDS011;21290;50.158;8.658;2023-04-10T03:31:12;16.08;;;11.70;;
35110;SDS011;21290;50.158;8.658;2023-04-10T03:33:39;16.25;;;10.93;;
35110;SDS011;21290;50.158;8.658;2023-04-10T03:36:06;14.73;;;11.23;;
35110;SDS011;21290;50.158;8.658;2023-04-10T03:38:33;17.10;;;10.90;;
35110;SDS011;21290;50.158;8.658;2023-04-10T03:41:00;15.52;;;10.77;;
35110;SDS011;21290;50.158;8.658;2023-04-10T03:43:28;14.88;;;10.75;;
35110;SDS011;21290;50.158;8.658;2023-04-10T03:45:55;12.35;;;8.35;;
35110;SDS011;21290;50.158;8.658;2023-04-10T03:48:22;14.95;;;10.60;;
35110;SDS011;21290;50.158;8.658;2023-04-10T03:50:49;17.33;;;10.95;;
35110;SDS011;21290;50.158;8.658;2023-04-10T03:53:15;15.73;;;11.13;;
35110;SDS011;21290;50.158;8.658;2023-04-10T03:55:42;15.32;;;10.80;;
35110;SDS011;21290;50.158;8.658;2023-04-10T03:58:08;16.10;;;10.90;;
35110;SDS011;21290;50.158;8.658;2023-04-10T04:00:35;15.75;;;10.77;;
35110;SDS011;21290;50.158;8.658;2023-04-10T04:03:02;15.05;;;10.60;;
35110;SDS011;21290;50.158;8.658;2023-04-10T04:05:30;13.75;;;10.40;;
35110;SDS011;21290;50.158;8.658;2023-04-10T04:07:57;15.05;;;10.85;;
35110;SDS011;21290;50.158;8.658;2023-04-10T04:10:23;17.40;;;10.50;;
35110;SDS011;21290;50.158;8.658;2023-04-10T04:12:50;15.13;;;10.77;;
35110;SDS011;21290;50.158;8.658;2023-04-10T04:15:17;15.80;;;11.27;;
35110;SDS011;21290;50.158;8.658;2023-04-10T04:17:43;15.00;;;11.45;;
35110;SDS011;21290;50.158;8.658;2023-04-10T04:20:11;17.85;;;12.23;;
35110;SDS011;21290;50.158;8.658;2023-04-10T04:22:38;15.65;;;11.40;;
35110;SDS011;21290;50.158;8.658;2023-04-10T04:25:04;16.02;;;11.60;;
35110;SDS011;21290;50.158;8.658;2023-04-10T04:27:33;16.40;;;11.00;;
35110;SDS011;21290;50.158;8.658;2023-04-10T04:30:01;17.23;;;12.13;;
35110;SDS011;21290;50.158;8.658;2023-04-10T04:32:28;18.90;;;12.57;;
35110;SDS011;21290;50.158;8.658;2023-04-10T04:34:54;17.90;;;11.90;;
35110;SDS011;21290;50.158;8.658;2023-04-10T04:37:21;15.60;;;11.75;;
35110;SDS011;21290;50.158;8.658;2023-04-10T04:39:48;16.98;;;11.10;;
35110;SDS011;21290;50.158;8.658;2023-04-10T04:42:14;16.85;;;11.63;;
35110;SDS011;21290;50.158;8.658;2023-04-10T04:44:41;18.02;;;11.43;;
35110;SDS011;21290;50.158;8.658;2023-04-10T04:47:08;14.38;;;10.50;;
35110;SDS011;21290;50.158;8.658;2023-04-10T04:49:35;16.23;;;10.98;;
35110;SDS011;21290;50.158;8.658;2023-04-10T04:52:01;16.30;;;11.73;;
35110;SDS011;21290;50.158;8.658;2023-04-10T04:54:28;15.63;;;11.10;;
35110;SDS011;21290;50.158;8.658;2023-04-10T04:56:55;14.77;;;10.57;;
35110;SDS011;21290;50.158;8.658;2023-04-10T04:59:21;15.93;;;11.40;;
35110;SDS011;21290;50.158;8.658;2023-04-10T05:01:48;15.48;;;11.43;;
35110;SDS011;21290;50.158;8.658;2023-04-10T05:04:15;15.40;;;10.70;;
35110;SDS011;21290;50.158;8.658;2023-04-10T05:06:42;14.98;;;10.52;;
35110;SDS011;21290;50.158;8.658;2023-04-10T05:09:08;14.38;;;10.63;;
35110;SDS011;21290;50.158;8.658;2023-04-10T05:11:35;15.18;;;10.40;;
35110;SDS011;21290;50.158;8.658;2023-04-10T05:14:02;15.02;;;10.50;;
35110;SDS011;21290;50.158;8.658;2023-04-10T05:16:28;15.45;;;10.23;;
35110;SDS011;21290;50.158;8.658;2023-04-10T05:18:55;14.18;;;10.93;;
35110;SDS011;21290;50.158;8.658;2023-04-10T05:21:22;16.88;;;10.77;;
35110;SDS011;21290;50.158;8.658;2023-04-10T05:23:49;13.80;;;9.93;;
35110;SDS011;21290;50.158;8.658;2023-04-10T05:26:16;14.52;;;9.98;;
35110;SDS011;21290;50.158;8.658;2023-04-10T05:28:42;15.23;;;10.93;;
35110;SDS011;21290;50.158;8.658;2023-04-10T05:31:09;15.85;;;10.65;;
35110;SDS011;21290;50.158;8.658;2023-04-10T05:33:35;14.40;;;9.90;;
35110;SDS011;21290;50.158;8.658;2023-04-10T05:36:02;14.13;;;10.02;;
35110;SDS011;21290;50.158;8.658;2023-04-10T05:38:29;12.85;;;9.85;;
35110;SDS011;21290;50.158;8.658;2023-04-10T05:40:56;12.07;;;9.93;;
35110;SDS011;21290;50.158;8.658;2023-04-10T05:43:22;13.70;;;10.13;;
35110;SDS011;21290;50.158;8.658;2023-04-10T05:45:49;12.55;;;10.18;;
35110;SDS011;21290;50.158;8.658;2023-04-10T05:48:16;15.68;;;9.60;;
35110;SDS011;21290;50.158;8.658;2023-04-10T05:50:42;14.75;;;10.35;;
35110;SDS011;21290;50.158;8.658;2023-04-10T05:53:12;12.77;;;9.57;;
35110;SDS011;21290;50.158;8.658;2023-04-10T05:55:39;14.95;;;9.88;;
35110;SDS011;21290;50.158;8.658;2023-04-10T05:58:06;19.92;;;10.30;;
35110;SDS011;21290;50.158;8.658;2023-04-10T06:00:32;12.73;;;9.38;;
35110;SDS011;21290;50.158;8.658;2023-04-10T06:02:59;13.90;;;10.23;;
35110;SDS011;21290;50.158;8.658;2023-04-10T06:05:26;12.85;;;9.73;;
35110;SDS011;21290;50.158;8.658;2023-04-10T06:07:53;14.18;;;10.40;;
35110;SDS011;21290;50.158;8.658;2023-04-10T06:10:23;12.52;;;9.45;;
35110;SDS011;21290;50.158;8.658;2023-04-10T06:12:49;13.65;;;9.45;;
35110;SDS011;21290;50.158;8.658;2023-04-10T06:15:16;12.85;;;10.00;;
35110;SDS011;21290;50.158;8.658;2023-04-10T06:17:42;12.32;;;9.63;;
35110;SDS011;21290;50.158;8.658;2023-04-10T06:20:09;12.70;;;9.85;;
35110;SDS011;21290;50.158;8.658;2023-04-10T06:22:36;13.48;;;10.23;;
35110;SDS011;21290;50.158;8.658;2023-04-10T06:25:03;14.10;;;9.18;;
35110;SDS011;21290;50.158;8.658;2023-04-10T06:27:30;12.50;;;8.57;;
35110;SDS011;21290;50.158;8.658;2023-04-10T06:29:58;14.30;;;10.18;;
35110;SDS011;21290;50.158;8.658;2023-04-10T06:32:25;12.02;;;9.48;;
35110;SDS011;21290;50.158;8.658;2023-04-10T06:34:51;10.93;;;8.98;;
35110;SDS011;21290;50.158;8.658;2023-04-10T06:37:18;12.98;;;9.02;;
35110;SDS011;21290;50.158;8.658;2023-04-10T06:39:45;13.02;;;9.63;;
35110;SDS011;21290;50.158;8.658;2023-04-10T06:42:11;11.65;;;9.35;;
35110;SDS011;21290;50.158;8.658;2023-04-10T06:44:38;12.10;;;9.10;;
35110;SDS011;21290;50.158;8.658;2023-04-10T06:47:04;15.82;;;10.15;;
35110;SDS011;21290;50.158;8.658;2023-04-10T06:49:32;12.23;;;9.48;;
35110;SDS011;21290;50.158;8.658;2023-04-10T06:51:58;15.13;;;9.45;;
35110;SDS011;21290;50.158;8.658;2023-04-10T06:54:25;11.85;;;9.32;;
35110;SDS011;21290;50.158;8.658;2023-04-10T06:56:51;12.70;;;10.00;;
35110;SDS011;21290;50.158;8.658;2023-04-10T06:59:18;12.95;;;9.45;;
35110;SDS011;21290;50.158;8.658;2023-04-10T07:01:44;13.32;;;10.48;;
35110;SDS011;21290;50.158;8.658;2023-04-10T07:04:11;17.35;;;11.20;;
35110;SDS011;21290;50.158;8.658;2023-04-10T07:06:38;143.82;;;70.93;;
35110;SDS011;21290;50.158;8.658;2023-04-10T07:09:04;37.65;;;22.92;;
35110;SDS011;21290;50.158;8.658;2023-04-10T07:11:31;19.67;;;13.70;;
35110;SDS011;21290;50.158;8.658;2023-04-10T07:13:57;15.48;;;11.60;;
35110;SDS011;21290;50.158;8.658;2023-04-10T07:16:24;14.02;;;10.70;;
35110;SDS011;21290;50.158;8.658;2023-04-10T07:18:51;12.48;;;9.98;;
35110;SDS011;21290;50.158;8.658;2023-04-10T07:21:18;12.80;;;10.75;;
35110;SDS011;21290;50.158;8.658;2023-04-10T07:23:44;13.80;;;11.13;;
35110;SDS011;21290;50.158;8.658;2023-04-10T07:26:11;14.82;;;11.40;;
35110;SDS011;21290;50.158;8.658;2023-04-10T07:28:38;12.82;;;10.50;;
35110;SDS011;21290;50.158;8.658;2023-04-10T07:31:04;15.82;;;10.55;;
35110;SDS011;21290;50.158;8.658;2023-04-10T07:33:33;14.00;;;10.88;;
35110;SDS011;21290;50.158;8.658;2023-04-10T07:35:59;13.95;;;11.07;;
35110;SDS011;21290;50.158;8.658;2023-04-10T07:38:27;13.70;;;10.48;;
35110;SDS011;21290;50.158;8.658;2023-04-10T07:40:57;14.85;;;11.27;;
35110;SDS011;21290;50.158;8.658;2023-04-10T07:43:24;13.13;;;10.88;;
35110;SDS011;21290;50.158;8.658;2023-04-10T07:45:51;13.88;;;11.02;;
35110;SDS011;21290;50.158;8.658;2023-04-10T07:48:17;13.50;;;11.13;;
35110;SDS011;21290;50.158;8.658;2023-04-10T07:50:44;13.25;;;10.70;;
35110;SDS011;21290;50.158;8.658;2023-04-10T07:53:11;11.35;;;9.60;;
35110;SDS011;21290;50.158;8.658;2023-04-10T07:55:41;13.20;;;10.75;;
35110;SDS011;21290;50.158;8.658;2023-04-10T07:58:09;12.45;;;10.02;;
35110;SDS011;21290;50.158;8.658;2023-04-10T08:00:36;14.20;;;10.23;;
35110;SDS011;21290;50.158;8.658;2023-04-10T08:03:03;12.07;;;9.95;;
35110;SDS011;21290;50.158;8.658;2023-04-10T08:05:31;13.57;;;11.05;;
35110;SDS011;21290;50.158;8.658;2023-04-10T08:07:58;16.38;;;10.98;;
35110;SDS011;21290;50.158;8.658;2023-04-10T08:10:25;12.07;;;10.23;;
35110;SDS011;21290;50.158;8.658;2023-04-10T08:12:52;13.50;;;10.52;;
35110;SDS011;21290;50.158;8.658;2023-04-10T08:15:18;14.68;;;10.88;;
35110;SDS011;21290;50.158;8.658;2023-04-10T08:17:45;12.45;;;10.90;;
35110;SDS011;21290;50.158;8.658;2023-04-10T08:20:12;12.55;;;10.23;;
35110;SDS011;21290;50.158;8.658;2023-04-10T08:22:39;11.27;;;9.90;;
35110;SDS011;21290;50.158;8.658;2023-04-10T08:25:05;12.52;;;9.73;;
35110;SDS011;21290;50.158;8.658;2023-04-10T08:27:32;10.63;;;9.20;;
35110;SDS011;21290;50.158;8.658;2023-04-10T08:29:58;11.70;;;10.05;;
35110;SDS011;21290;50.158;8.658;2023-04-10T08:32:26;10.43;;;9.32;;
35110;SDS011;21290;50.158;8.658;2023-04-10T08:34:53;11.13;;;9.98;;
35110;SDS011;21290;50.158;8.658;2023-04-10T08:37:19;10.50;;;9.40;;
35110;SDS011;21290;50.158;8.658;2023-04-10T08:39:46;10.43;;;8.70;;
35110;SDS011;21290;50.158;8.658;2023-04-10T08:42:13;10.18;;;9.10;;
35110;SDS011;21290;50.158;8.658;2023-04-10T08:44:39;9.70;;;8.70;;
35110;SDS011;21290;50.158;8.658;2023-04-10T08:47:06;9.45;;;8.55;;
35110;SDS011;21290;50.158;8.658;2023-04-10T08:49:40;9.15;;;8.02;;
35110;SDS011;21290;50.158;8.658;2023-04-10T08:52:23;9.18;;;8.27;;
35110;SDS011;21290;50.158;8.658;2023-04-10T08:54:54;8.88;;;7.85;;
35110;SDS011;21290;50.158;8.658;2023-04-10T08:57:22;7.72;;;7.00;;
35110;SDS011;21290;50.158;8.658;2023-04-10T08:59:49;7.85;;;7.10;;
35110;SDS011;21290;50.158;8.658;2023-04-10T09:02:17;8.00;;;6.97;;
35110;SDS011;21290;50.158;8.658;2023-04-10T09:04:48;7.30;;;6.47;;
35110;SDS011;21290;50.158;8.658;2023-04-10T09:07:17;7.28;;;6.57;;
35110;SDS011;21290;50.158;8.658;2023-04-10T09:09:43;8.15;;;6.25;;
35110;SDS011;21290;50.158;8.658;2023-04-10T09:12:11;9.02;;;6.57;;
35110;SDS011;21290;50.158;8.658;2023-04-10T09:14:39;8.75;;;6.50;;
35110;SDS011;21290;50.158;8.658;2023-04-10T09:17:10;7.38;;;6.03;;
35110;SDS011;21290;50.158;8.658;2023-04-10T09:19:39;7.38;;;6.65;;
35110;SDS011;21290;50.158;8.658;2023-04-10T09:22:06;6.43;;;5.82;;
35110;SDS011;21290;50.158;8.658;2023-04-10T09:24:37;6.35;;;5.75;;
35110;SDS011;21290;50.158;8.658;2023-04-10T09:27:04;6.47;;;5.88;;
35110;SDS011;21290;50.158;8.658;2023-04-10T09:29:40;5.82;;;5.30;;
35110;SDS011;21290;50.158;8.658;2023-04-10T09:32:11;6.15;;;5.25;;
35110;SDS011;21290;50.158;8.658;2023-04-10T09:34:50;6.70;;;6.00;;
35110;SDS011;21290;50.158;8.658;2023-04-10T09:37:22;6.40;;;5.80;;
35110;SDS011;21290;50.158;8.658;2023-04-10T09:39:56;6.60;;;5.90;;
35110;SDS011;21290;50.158;8.658;2023-04-10T09:42:33;6.75;;;5.68;;
35110;SDS011;21290;50.158;8.658;2023-04-10T09:45:02;7.20;;;6.50;;
35110;SDS011;21290;50.158;8.658;2023-04-10T09:47:29;6.03;;;5.43;;
35110;SDS011;21290;50.158;8.658;2023-04-10T09:49:57;6.57;;;5.97;;
35110;SDS011;21290;50.158;8.658;2023-04-10T09:54:59;6.43;;;5.82;;
35110;SDS011;21290;50.158;8.658;2023-04-10T09:57:32;6.00;;;5.40;;
35110;SDS011;21290;50.158;8.658;2023-04-10T10:00:00;6.70;;;6.00;;
35110;SDS011;21290;50.158;8.658;2023-04-10T10:02:30;6.22;;;5.65;;
35110;SDS011;21290;50.158;8.658;2023-04-10T10:04:59;5.80;;;5.20;;
35110;SDS011;21290;50.158;8.658;2023-04-10T10:07:26;6.47;;;5.85;;
35110;SDS011;21290;50.158;8.658;2023-04-10T10:09:54;6.38;;;5.72;;
35110;SDS011;21290;50.158;8.658;2023-04-10T10:12:22;5.53;;;5.03;;
35110;SDS011;21290;50.158;8.658;2023-04-10T10:14:59;10.73;;;5.20;;
35110;SDS011;21290;50.158;8.658;2023-04-10T10:17:31;5.13;;;4.63;;
35110;SDS011;21290;50.158;8.658;2023-04-10T10:20:08;4.78;;;4.38;;
35110;SDS011;21290;50.158;8.658;2023-04-10T10:22:36;5.30;;;4.80;;
35110;SDS011;21290;50.158;8.658;2023-04-10T10:25:03;5.22;;;4.72;;
35110;SDS011;21290;50.158;8.658;2023-04-10T10:27:33;5.22;;;4.53;;
35110;SDS011;21290;50.158;8.658;2023-04-10T10:30:02;4.85;;;4.45;;
35110;SDS011;21290;50.158;8.658;2023-04-10T10:32:50;5.17;;;4.67;;
35110;SDS011;21290;50.158;8.658;2023-04-10T10:35:17;6.85;;;4.90;;
35110;SDS011;21290;50.158;8.658;2023-04-10T10:37:44;4.63;;;4.22;;
35110;SDS011;21290;50.158;8.658;2023-04-10T10:40:19;4.65;;;4.20;;
35110;SDS011;21290;50.158;8.658;2023-04-10T10:42:54;4.70;;;4.05;;
35110;SDS011;21290;50.158;8.658;2023-04-10T10:45:41;4.90;;;4.40;;
35110;SDS011;21290;50.158;8.658;2023-04-10T10:48:15;5.68;;;4.85;;
35110;SDS011;21290;50.158;8.658;2023-04-10T10:53:30;4.63;;;4.22;;
35110;SDS011;21290;50.158;8.658;2023-04-10T10:58:55;4.60;;;4.15;;
35110;SDS011;21290;50.158;8.658;2023-04-10T11:01:27;4.68;;;4.13;;
35110;SDS011;21290;50.158;8.658;2023-04-10T11:03:53;4.35;;;3.95;;
35110;SDS011;21290;50.158;8.658;2023-04-10T11:06:20;4.45;;;4.05;;
35110;SDS011;21290;50.158;8.658;2023-04-10T11:09:25;3.90;;;3.60;;
35110;SDS011;21290;50.158;8.658;2023-04-10T11:12:15;3.92;;;3.53;;
35110;SDS011;21290;50.158;8.658;2023-04-10T11:14:55;4.38;;;3.97;;
35110;SDS011;21290;50.158;8.658;2023-04-10T11:20:14;3.88;;;3.40;;
35110;SDS011;21290;50.158;8.658;2023-04-10T11:25:50;4.10;;;3.80;;
35110;SDS011;21290;50.158;8.658;2023-04-10T11:31:18;4.20;;;3.80;;
35110;SDS011;21290;50.158;8.658;2023-04-10T11:36:27;4.68;;;3.80;;
35110;SDS011;21290;50.158;8.658;2023-04-10T11:41:32;4.50;;;4.10;;
35110;SDS011;21290;50.158;8.658;2023-04-10T11:44:00;4.45;;;4.05;;
35110;SDS011;21290;50.158;8.658;2023-04-10T11:46:27;4.05;;;3.65;;
35110;SDS011;21290;50.158;8.658;2023-04-10T11:48:58;4.93;;;4.07;;
35110;SDS011;21290;50.158;8.658;2023-04-10T11:51:26;4.40;;;4.00;;
35110;SDS011;21290;50.158;8.658;2023-04-10T11:54:10;5.13;;;3.80;;
35110;SDS011;21290;50.158;8.658;2023-04-10T11:59:36;3.53;;;3.22;;
35110;SDS011;21290;50.158;8.658;2023-04-10T12:02:07;3.33;;;3.03;;
35110;SDS011;21290;50.158;8.658;2023-04-10T12:04:41;3.90;;;3.50;;
35110;SDS011;21290;50.158;8.658;2023-04-10T12:07:09;4.40;;;3.25;;
35110;SDS011;21290;50.158;8.658;2023-04-10T12:09:36;4.55;;;3.60;;
35110;SDS011;21290;50.158;8.658;2023-04-10T12:12:03;3.47;;;3.17;;
35110;SDS011;21290;50.158;8.658;2023-04-10T12:14:35;4.55;;;3.28;;
35110;SDS011;21290;50.158;8.658;2023-04-10T12:17:05;3.58;;;3.17;;
35110;SDS011;21290;50.158;8.658;2023-04-10T12:19:34;3.38;;;3.08;;
35110;SDS011;21290;50.158;8.658;2023-04-10T12:22:01;3.10;;;2.80;;
35110;SDS011;21290;50.158;8.658;2023-04-10T12:24:41;3.33;;;3.03;;
35110;SDS011;21290;50.158;8.658;2023-04-10T12:27:24;4.88;;;3.10;;
35110;SDS011;21290;50.158;8.658;2023-04-10T12:29:53;2.75;;;2.42;;
35110;SDS011;21290;50.158;8.658;2023-04-10T12:32:22;4.05;;;2.65;;
35110;SDS011;21290;50.158;8.658;2023-04-10T12:34:53;6.45;;;2.42;;
35110;SDS011;21290;50.158;8.658;2023-04-10T12:37:24;4.13;;;2.50;;
35110;SDS011;21290;50.158;8.658;2023-04-10T12:39:51;2.92;;;2.28;;
35110;SDS011;21290;50.158;8.658;2023-04-10T12:42:19;2.92;;;2.63;;
35110;SDS011;21290;50.158;8.658;2023-04-10T12:44:51;3.17;;;2.75;;
35110;SDS011;21290;50.158;8.658;2023-04-10T12:47:21;2.03;;;1.88;;
35110;SDS011;21290;50.158;8.658;2023-04-10T12:53:01;2.72;;;2.25;;
35110;SDS011;21290;50.158;8.658;2023-04-10T12:55:29;3.67;;;3.20;;
35110;SDS011;21290;50.158;8.658;2023-04-10T12:57:56;2.60;;;2.40;;
35110;SDS011;21290;50.158;8.658;2023-04-10T13:00:22;2.90;;;2.60;;
35110;SDS011;21290;50.158;8.658;2023-04-10T13:02:50;2.55;;;2.35;;
35110;SDS011;21290;50.158;8.658;2023-04-10T13:05:17;2.63;;;2.20;;
35110;SDS011;21290;50.158;8.658;2023-04-10T13:07:44;2.10;;;1.90;;
35110;SDS011;21290;50.158;8.658;2023-04-10T13:10:10;2.38;;;2.17;;
35110;SDS011;21290;50.158;8.658;2023-04-10T13:12:37;2.42;;;2.20;;
35110;SDS011;21290;50.158;8.658;2023-04-10T13:15:05;2.47;;;2.28;;
35110;SDS011;21290;50.158;8.658;2023-04-10T13:17:33;2.33;;;2.13;;
35110;SDS011;21290;50.158;8.658;2023-04-10T13:19:59;2.30;;;2.10;;
35110;SDS011;21290;50.158;8.658;2023-04-10T13:22:26;2.38;;;2.17;;
35110;SDS011;21290;50.158;8.658;2023-04-10T13:24:53;6.45;;;2.17;;
35110;SDS011;21290;50.158;8.658;2023-04-10T13:27:19;4.43;;;2.80;;
35110;SDS011;21290;50.158;8.658;2023-04-10T13:29:47;2.15;;;1.95;;
35110;SDS011;21290;50.158;8.658;2023-04-10T13:32:13;5.63;;;2.20;;
35110;SDS011;21290;50.158;8.658;2023-04-10T13:34:40;2.55;;;1.95;;
35110;SDS011;21290;50.158;8.658;2023-04-10T13:37:08;2.08;;;1.88;;
35110;SDS011;21290;50.158;8.658;2023-04-10T13:39:38;2.20;;;2.00;;
35110;SDS011;21290;50.158;8.658;2023-04-10T13:42:04;2.38;;;2.17;;
35110;SDS011;21290;50.158;8.658;2023-04-10T13:44:31;2.28;;;2.08;;
35110;SDS011;21290;50.158;8.658;2023-04-10T13:46:57;2.67;;;2.30;;
35110;SDS011;21290;50.158;8.658;2023-04-10T13:49:24;3.63;;;2.22;;
35110;SDS011;21290;50.158;8.658;2023-04-10T13:51:51;3.95;;;2.70;;
35110;SDS011;21290;50.158;8.658;2023-04-10T13:54:17;2.80;;;2.50;;
35110;SDS011;21290;50.158;8.658;2023-04-10T13:56:44;2.60;;;2.40;;
35110;SDS011;21290;50.158;8.658;2023-04-10T13:59:11;3.17;;;2.88;;
35110;SDS011;21290;50.158;8.658;2023-04-10T14:01:38;2.85;;;2.40;;
35110;SDS011;21290;50.158;8.658;2023-04-10T14:04:05;3.30;;;2.85;;
35110;SDS011;21290;50.158;8.658;2023-04-10T14:06:32;2.63;;;2.42;;
35110;SDS011;21290;50.158;8.658;2023-04-10T14:08:59;2.60;;;2.40;;
35110;SDS011;21290;50.158;8.658;2023-04-10T14:11:25;3.47;;;2.53;;
35110;SDS011;21290;50.158;8.658;2023-04-10T14:13:52;4.22;;;2.60;;
35110;SDS011;21290;50.158;8.658;2023-04-10T14:16:19;8.48;;;2.70;;
35110;SDS011;21290;50.158;8.658;2023-04-10T14:18:45;2.97;;;2.67;;
35110;SDS011;21290;50.158;8.658;2023-04-10T14:21:12;3.03;;;2.55;;
35110;SDS011;21290;50.158;8.658;2023-04-10T14:23:39;2.75;;;2.50;;
35110;SDS011;21290;50.158;8.658;2023-04-10T14:26:07;2.73;;;2.53;;
35110;SDS011;21290;50.158;8.658;2023-04-10T14:28:34;3.08;;;2.78;;
35110;SDS011;21290;50.158;8.658;2023-04-10T14:31:00;2.85;;;2.63;;
35110;SDS011;21290;50.158;8.658;2023-04-10T14:33:27;2.92;;;2.63;;
35110;SDS011;21290;50.158;8.658;2023-04-10T14:35:54;5.40;;;2.72;;
35110;SDS011;21290;50.158;8.658;2023-04-10T14:38:21;2.83;;;2.60;;
35110;SDS011;21290;50.158;8.658;2023-04-10T14:40:47;2.70;;;2.50;;
35110;SDS011;21290;50.158;8.658;2023-04-10T14:43:15;2.67;;;2.47;;
35110;SDS011;21290;50.158;8.658;2023-04-10T14:45:44;2.42;;;2.22;;
35110;SDS011;21290;50.158;8.658;2023-04-10T14:48:11;2.63;;;2.42;;
35110;SDS011;21290;50.158;8.658;2023-04-10T14:50:38;2.50;;;2.30;;
35110;SDS011;21290;50.158;8.658;2023-04-10T14:53:05;3.20;;;2.22;;
35110;SDS011;21290;50.158;8.658;2023-04-10T14:55:34;2.72;;;2.40;;
35110;SDS011;21290;50.158;8.658;2023-04-10T14:58:02;2.70;;;2.45;;
35110;SDS011;21290;50.158;8.658;2023-04-10T15:00:29;3.35;;;2.63;;
35110;SDS011;21290;50.158;8.658;2023-04-10T15:02:55;4.18;;;2.30;;
35110;SDS011;21290;50.158;8.658;2023-04-10T15:05:22;2.53;;;2.22;;
35110;SDS011;21290;50.158;8.658;2023-04-10T15:07:52;2.53;;;2.33;;
35110;SDS011;21290;50.158;8.658;2023-04-10T15:10:19;2.40;;;2.20;;
35110;SDS011;21290;50.158;8.658;2023-04-10T15:12:46;4.30;;;2.33;;
35110;SDS011;21290;50.158;8.658;2023-04-10T15:15:12;3.55;;;2.20;;
35110;SDS011;21290;50.158;8.658;2023-04-10T15:17:39;2.38;;;2.10;;
35110;SDS011;21290;50.158;8.658;2023-04-10T15:20:06;2.47;;;2.28;;
35110;SDS011;21290;50.158;8.658;2023-04-10T15:22:33;2.38;;;2.17;;